Time;durP1;ratioP1;P1;durP2;ratioP2;P2;SDS_P1;SDS_P2;PMS_P1;PMS_P2;Temp;Humidity;BMP_temperature;BMP_pressure;BME280_temperature;BME280_humidity;BME280_pressure;Samples;Min_cycle;Max_cycle;Signal;HPM_P1;HPM_P2
2022/04/14 00:00:05;;;;;;;13.03;9.40;;;;;;;12.59;100.00;101191.28;678943;28;1317;-76
2022/04/14 00:00:30;;;;;;;12.85;9.40;;;;;;;12.58;100.00;101189.53;678894;29;1966;-76
2022/04/14 00:00:51;;;;;;;13.02;9.23;;;;;;;12.59;99.93;101190.44;679492;28;1434;-76
2022/04/14 00:01:11;;;;;;;13.40;9.77;;;;;;;12.59;100.00;101193.91;682047;28;1390;-76
2022/04/14 00:01:31;;;;;;;13.82;9.57;;;;;;;12.60;100.00;101189.56;684829;28;1243;-76
2022/04/14 00:01:52;;;;;;;13.10;9.50;;;;;;;12.62;100.00;101194.78;687938;28;4306;-76
2022/04/14 00:02:13;;;;;;;12.65;9.23;;;;;;;12.63;99.65;101188.66;688860;28;1187;-76
2022/04/14 00:02:33;;;;;;;11.03;9.03;;;;;;;12.62;100.00;101192.16;688968;28;1274;-76
2022/04/14 00:02:54;;;;;;;13.77;9.88;;;;;;;12.62;100.00;101186.94;689122;28;1294;-77
2022/04/14 00:03:14;;;;;;;13.10;9.52;;;;;;;12.60;99.57;101195.66;686357;28;1316;-77
2022/04/14 00:03:35;;;;;;;13.77;9.37;;;;;;;12.60;100.00;101195.66;689199;28;1154;-76
2022/04/14 00:03:55;;;;;;;12.40;9.23;;;;;;;12.62;100.00;101200.03;688856;28;1123;-76
2022/04/14 00:04:15;;;;;;;13.43;9.77;;;;;;;12.64;100.00;101191.28;682465;28;1572;-76
2022/04/14 00:04:36;;;;;;;13.10;9.27;;;;;;;12.64;100.00;101196.53;682437;28;4472;-77
2022/04/14 00:04:57;;;;;;;13.55;9.45;;;;;;;12.63;100.00;101193.91;677718;28;1670;-76
2022/04/14 00:05:17;;;;;;;13.13;9.27;;;;;;;12.62;99.36;101192.16;677586;29;1335;-76
2022/04/14 00:05:38;;;;;;;11.97;8.87;;;;;;;12.60;100.00;101194.81;679786;28;1750;-76
2022/04/14 00:05:58;;;;;;;14.30;9.48;;;;;;;12.60;100.00;101192.19;683412;28;1196;-76
2022/04/14 00:06:18;;;;;;;14.43;9.57;;;;;;;12.59;100.00;101196.53;685388;28;1853;-76
2022/04/14 00:06:39;;;;;;;12.17;9.23;;;;;;;12.58;100.00;101193.94;685779;28;1195;-76
2022/04/14 00:06:59;;;;;;;14.25;9.50;;;;;;;12.59;99.72;101193.06;686549;28;1425;-76
2022/04/14 00:07:19;;;;;;;14.27;9.27;;;;;;;12.57;99.85;101190.44;685997;28;1930;-76
2022/04/14 00:07:40;;;;;;;12.98;8.98;;;;;;;12.57;99.98;101200.03;683499;28;4493;-76
2022/04/14 00:08:00;;;;;;;12.03;8.87;;;;;;;12.57;100.00;101200.94;684099;28;1772;-76
2022/04/14 00:08:21;;;;;;;13.10;9.65;;;;;;;12.57;100.00;101200.03;688097;28;1167;-76
2022/04/14 00:08:41;;;;;;;11.90;8.90;;;;;;;12.58;100.00;101196.56;681835;28;1288;-76
2022/04/14 00:09:02;;;;;;;13.40;9.27;;;;;;;12.57;100.00;101206.19;681086;28;1797;-77
2022/04/14 00:09:22;;;;;;;13.27;9.70;;;;;;;12.54;100.00;101195.69;677727;28;1209;-76
2022/04/14 00:09:43;;;;;;;13.33;9.60;;;;;;;12.54;100.00;101195.69;680354;28;1423;-76
2022/04/14 00:10:04;;;;;;;12.77;9.47;;;;;;;12.53;100.00;101199.19;681006;28;1329;-76
2022/04/14 00:10:24;;;;;;;13.93;9.32;;;;;;;12.53;100.00;101200.94;682737;28;1682;-76
2022/04/14 00:10:45;;;;;;;15.00;9.67;;;;;;;12.51;100.00;101206.19;684369;28;4537;-76
2022/04/14 00:11:05;;;;;;;13.88;9.57;;;;;;;12.51;100.00;101203.56;680707;28;2392;-77
2022/04/14 00:11:26;;;;;;;13.63;9.70;;;;;;;12.52;100.00;101207.94;681300;28;1393;-77
2022/04/14 00:11:46;;;;;;;13.82;9.88;;;;;;;12.51;100.00;101200.94;678895;28;1360;-76
2022/04/14 00:12:07;;;;;;;13.63;9.93;;;;;;;12.50;100.00;101203.56;677730;29;1179;-77
2022/04/14 00:12:27;;;;;;;13.43;9.88;;;;;;;12.50;100.00;101207.09;681401;28;1587;-76
2022/04/14 00:12:48;;;;;;;12.03;9.40;;;;;;;12.51;100.00;101200.09;684515;28;1693;-76
2022/04/14 00:13:10;;;;;;;15.05;10.07;;;;;;;12.50;100.00;101200.94;685820;28;918;-76
2022/04/14 00:13:31;;;;;;;13.38;9.82;;;;;;;12.50;100.00;101200.94;682790;28;1600;-76
2022/04/14 00:13:51;;;;;;;13.80;9.40;;;;;;;12.49;100.00;101199.19;682365;28;5122;-76
2022/04/14 00:14:11;;;;;;;14.47;9.57;;;;;;;12.48;100.00;101200.09;680668;28;1542;-76
2022/04/14 00:14:32;;;;;;;12.43;9.33;;;;;;;12.45;100.00;101200.97;682351;28;1140;-77
2022/04/14 00:14:52;;;;;;;12.50;9.43;;;;;;;12.43;100.00;101208.84;680338;28;1533;-76
2022/04/14 00:15:12;;;;;;;11.60;9.10;;;;;;;12.43;100.00;101198.38;682652;28;1818;-76
2022/04/14 00:15:33;;;;;;;12.53;9.53;;;;;;;12.44;100.00;101201.84;683376;28;1279;-77
2022/04/14 00:15:53;;;;;;;12.73;9.70;;;;;;;12.41;100.00;101201.88;681058;28;1289;-76
2022/04/14 00:16:14;;;;;;;13.88;9.50;;;;;;;12.40;100.00;101198.34;680081;29;1387;-76
2022/04/14 00:16:34;;;;;;;13.70;9.63;;;;;;;12.38;100.00;101205.38;678659;28;4313;-76
2022/04/14 00:16:55;;;;;;;14.55;9.80;;;;;;;12.37;100.00;101208.00;677197;28;1129;-76
2022/04/14 00:17:15;;;;;;;13.53;9.77;;;;;;;12.38;100.00;101204.50;677443;28;1066;-76
2022/04/14 00:17:36;;;;;;;12.13;9.53;;;;;;;12.38;100.00;101201.88;678864;28;1369;-76
2022/04/14 00:17:56;;;;;;;13.57;9.00;;;;;;;12.37;100.00;101193.13;680232;28;1280;-76
2022/04/14 00:18:17;;;;;;;12.57;9.00;;;;;;;12.38;100.00;101201.88;683952;28;1365;-76
2022/04/14 00:18:37;;;;;;;13.52;9.60;;;;;;;12.36;100.00;101199.25;684180;28;1505;-76
2022/04/14 00:18:58;;;;;;;13.03;9.90;;;;;;;12.36;100.00;101199.25;683756;28;1028;-77
2022/04/14 00:19:18;;;;;;;13.55;10.13;;;;;;;12.36;100.00;101201.00;683834;28;951;-76
2022/04/14 00:19:40;;;;;;;13.50;9.93;;;;;;;12.36;100.00;101201.00;684387;28;4334;-76
2022/04/14 00:20:03;;;;;;;13.98;10.18;;;;;;;12.33;100.00;101196.66;682126;28;1136;-76
2022/04/14 00:20:23;;;;;;;13.02;9.70;;;;;;;12.33;100.00;101201.03;682091;28;1902;-77
2022/04/14 00:20:44;;;;;;;13.23;9.75;;;;;;;12.34;100.00;101200.16;685022;28;1658;-78
2022/04/14 00:21:04;;;;;;;13.60;10.03;;;;;;;12.34;100.00;101198.41;687070;28;1435;-76
2022/04/14 00:21:25;;;;;;;14.32;10.27;;;;;;;12.34;100.00;101192.28;686811;28;1420;-76
2022/04/14 00:21:45;;;;;;;13.20;10.17;;;;;;;12.31;100.00;101197.53;688357;28;1589;-76
2022/04/14 00:22:06;;;;;;;14.25;10.38;;;;;;;12.29;100.00;101200.16;684043;28;1829;-76
2022/04/14 00:22:26;;;;;;;14.03;10.57;;;;;;;12.30;100.00;101201.91;684761;28;1400;-76
2022/04/14 00:22:46;;;;;;;15.02;9.98;;;;;;;12.30;100.00;101198.41;685047;28;4405;-76
2022/04/14 00:23:07;;;;;;;12.03;8.70;;;;;;;12.33;100.00;101198.41;689189;28;1251;-76
2022/04/14 00:23:27;;;;;;;11.90;8.90;;;;;;;12.37;100.00;101193.13;687918;28;1581;-77
2022/04/14 00:23:47;;;;;;;13.27;9.40;;;;;;;12.38;100.00;101194.88;686394;28;1782;-76
2022/04/14 00:24:08;;;;;;;13.50;9.80;;;;;;;12.37;100.00;101202.75;687895;28;1394;-76
2022/04/14 00:24:28;;;;;;;14.65;10.40;;;;;;;12.36;100.00;101196.63;687079;28;991;-76
2022/04/14 00:24:49;;;;;;;13.90;9.90;;;;;;;12.37;100.00;101202.75;679382;28;1056;-76
2022/04/14 00:25:10;;;;;;;14.60;10.07;;;;;;;12.35;100.00;101199.25;676947;29;1490;-77
2022/04/14 00:25:31;;;;;;;14.90;10.48;;;;;;;12.33;100.00;101196.66;678616;28;1411;-77
2022/04/14 00:25:51;;;;;;;12.90;9.68;;;;;;;12.30;100.00;101198.41;677570;28;4308;-77
2022/04/14 00:26:12;;;;;;;12.83;9.73;;;;;;;12.27;100.00;101202.78;679415;28;1526;-77
2022/04/14 00:26:32;;;;;;;13.27;10.17;;;;;;;12.25;100.00;101195.78;681555;28;1568;-76
2022/04/14 00:26:52;;;;;;;14.40;10.10;;;;;;;12.25;100.00;101204.56;678093;28;1250;-77
2022/04/14 00:27:17;;;;;;;14.88;10.25;;;;;;;12.22;100.00;101194.06;683861;28;1444;-76
2022/04/14 00:27:38;;;;;;;14.90;10.20;;;;;;;12.20;100.00;101195.81;684492;28;1045;-77
2022/04/14 00:27:59;;;;;;;15.48;10.20;;;;;;;12.19;100.00;101199.31;686327;28;1448;-76
2022/04/14 00:28:19;;;;;;;16.00;10.27;;;;;;;12.17;100.00;101195.84;685867;28;1455;-76
2022/04/14 00:28:39;;;;;;;13.52;10.50;;;;;;;12.15;100.00;101194.94;686663;28;4494;-76
2022/04/14 00:29:00;;;;;;;13.90;10.37;;;;;;;12.13;100.00;101188.84;689564;28;1251;-76
2022/04/14 00:29:20;;;;;;;14.05;10.50;;;;;;;12.13;100.00;101194.09;691331;28;1425;-76
2022/04/14 00:29:41;;;;;;;13.73;10.80;;;;;;;12.12;100.00;101197.59;690886;28;1544;-76
2022/04/14 00:30:01;;;;;;;13.03;10.00;;;;;;;12.09;100.00;101192.38;689753;28;1219;-77
2022/04/14 00:30:22;;;;;;;14.15;9.82;;;;;;;12.08;100.00;101196.72;688541;28;958;-76
2022/04/14 00:30:42;;;;;;;15.38;10.52;;;;;;;12.06;100.00;101192.38;684056;28;1438;-76
2022/04/14 00:31:04;;;;;;;14.27;10.57;;;;;;;12.03;100.00;101197.59;681079;28;1397;-77
2022/04/14 00:31:24;;;;;;;14.65;10.85;;;;;;;12.02;100.00;101190.63;680381;28;1608;-76
2022/04/14 00:31:44;;;;;;;14.03;10.33;;;;;;;12.03;100.00;101195.88;676947;28;4303;-76
2022/04/14 00:32:05;;;;;;;13.15;9.80;;;;;;;12.03;100.00;101192.38;677304;29;1233;-76
2022/04/14 00:32:25;;;;;;;12.97;9.67;;;;;;;12.04;100.00;101197.59;678660;29;909;-77
2022/04/14 00:32:46;;;;;;;14.88;10.35;;;;;;;12.06;100.00;101192.38;677093;28;1026;-76
2022/04/14 00:33:06;;;;;;;15.17;10.43;;;;;;;12.06;100.00;101200.25;678892;29;998;-77
2022/04/14 00:33:27;;;;;;;14.23;10.33;;;;;;;12.04;100.00;101194.97;679039;28;1529;-77
2022/04/14 00:33:47;;;;;;;12.37;9.83;;;;;;;12.05;100.00;101196.72;684054;28;1298;-76
2022/04/14 00:34:07;;;;;;;12.77;9.97;;;;;;;12.05;100.00;101198.47;686020;28;1420;-76
2022/04/14 00:34:28;;;;;;;12.80;9.73;;;;;;;12.07;100.00;101195.00;687462;28;1237;-76
2022/04/14 00:34:48;;;;;;;13.33;9.47;;;;;;;12.10;100.00;101194.09;686616;28;4394;-77
2022/04/14 00:35:09;;;;;;;13.68;9.70;;;;;;;12.09;100.00;101192.38;689807;28;1587;-77
2022/04/14 00:35:29;;;;;;;13.10;10.17;;;;;;;12.08;100.00;101195.84;689931;28;1206;-76
2022/04/14 00:35:49;;;;;;;12.60;9.93;;;;;;;12.08;100.00;101188.00;686713;28;1620;-76
2022/04/14 00:36:10;;;;;;;14.47;10.07;;;;;;;12.07;100.00;101194.09;686132;28;1548;-77
2022/04/14 00:36:33;;;;;;;14.18;9.48;;;;;;;12.05;100.00;101185.38;686864;28;1069;-77
2022/04/14 00:36:53;;;;;;;14.40;9.43;;;;;;;12.07;100.00;101191.47;682714;28;1364;-76
2022/04/14 00:37:17;;;;;;;13.38;9.65;;;;;;;12.09;100.00;101193.22;685734;28;1302;-76
2022/04/14 00:37:39;;;;;;;12.73;9.90;;;;;;;12.11;100.00;101189.72;686931;28;4318;-77
2022/04/14 00:37:59;;;;;;;12.65;9.80;;;;;;;12.14;100.00;101192.34;684201;28;1488;-76
2022/04/14 00:38:19;;;;;;;13.97;9.70;;;;;;;12.17;100.00;101194.94;682939;28;1913;-77
2022/04/14 00:38:40;;;;;;;12.88;9.45;;;;;;;12.17;100.00;101187.97;684351;28;1439;-76
2022/04/14 00:39:00;;;;;;;11.90;8.93;;;;;;;12.18;100.00;101197.56;684159;28;1565;-77
2022/04/14 00:39:21;;;;;;;12.38;9.05;;;;;;;12.19;100.00;101193.22;682863;28;1144;-76
2022/04/14 00:39:41;;;;;;;11.93;9.40;;;;;;;12.20;100.00;101182.72;684003;28;1657;-77
2022/04/14 00:40:02;;;;;;;12.70;10.07;;;;;;;12.22;100.00;101187.94;688059;28;1570;-76
2022/04/14 00:40:22;;;;;;;12.53;9.73;;;;;;;12.22;100.00;101199.28;687108;28;1969;-76
2022/04/14 00:40:43;;;;;;;12.77;9.73;;;;;;;12.22;100.00;101191.44;683669;28;4312;-76
2022/04/14 00:41:03;;;;;;;13.43;10.00;;;;;;;12.19;100.00;101186.22;687672;28;840;-77
2022/04/14 00:41:23;;;;;;;14.80;9.90;;;;;;;12.18;100.00;101192.31;688934;28;1058;-77
2022/04/14 00:41:44;;;;;;;14.33;9.87;;;;;;;12.19;100.00;101190.59;686806;28;2212;-76
2022/04/14 00:42:09;;;;;;;14.05;10.20;;;;;;;12.16;100.00;101188.84;684289;28;1512;-76
2022/04/14 00:42:29;;;;;;;14.55;10.75;;;;;;;12.15;100.00;101194.09;687001;28;1672;-77
2022/04/14 00:42:49;;;;;;;14.73;10.30;;;;;;;12.13;100.00;101194.09;685280;28;1124;-76
2022/04/14 00:43:10;;;;;;;14.87;10.23;;;;;;;12.11;100.00;101181.88;683368;28;1158;-76
2022/04/14 00:43:32;;;;;;;13.88;10.43;;;;;;;12.09;100.00;101187.97;676812;29;1234;-77
2022/04/14 00:43:54;;;;;;;13.60;10.00;;;;;;;12.09;100.00;101181.88;678111;28;5893;-76
2022/04/14 00:44:14;;;;;;;13.32;10.10;;;;;;;12.06;100.00;101192.38;680580;28;1383;-76
2022/04/14 00:44:35;;;;;;;12.30;9.97;;;;;;;12.06;100.00;101197.63;678491;28;916;-76
2022/04/14 00:44:55;;;;;;;14.93;10.18;;;;;;;12.05;100.00;101190.63;684037;28;1461;-76
2022/04/14 00:45:15;;;;;;;15.13;11.07;;;;;;;12.04;100.00;101188.88;684499;28;1574;-77
2022/04/14 00:45:36;;;;;;;14.10;10.25;;;;;;;12.01;100.00;101191.50;684440;28;1443;-76
2022/04/14 00:45:58;;;;;;;13.27;10.17;;;;;;;12.02;100.00;101185.41;683510;28;1359;-76
2022/04/14 00:46:19;;;;;;;13.23;10.00;;;;;;;12.02;100.00;101175.78;681663;28;1561;-76
2022/04/14 00:46:39;;;;;;;13.77;10.50;;;;;;;12.00;100.00;101182.75;678633;28;4632;-76
2022/04/14 00:46:59;;;;;;;13.13;10.37;;;;;;;12.00;100.00;101184.50;679314;28;1210;-77
2022/04/14 00:47:21;;;;;;;13.80;10.38;;;;;;;11.99;100.00;101188.00;680707;28;1082;-76
2022/04/14 00:47:41;;;;;;;14.20;10.32;;;;;;;12.00;100.00;101192.38;683523;28;1412;-76
2022/04/14 00:48:02;;;;;;;14.77;10.10;;;;;;;12.01;100.00;101181.03;682762;28;1136;-76
2022/04/14 00:48:23;;;;;;;13.88;9.63;;;;;;;12.00;100.00;101181.91;683539;28;1033;-77
2022/04/14 00:48:44;;;;;;;13.13;10.00;;;;;;;12.01;100.00;101188.88;685060;28;1255;-76
2022/04/14 00:49:04;;;;;;;12.70;9.75;;;;;;;12.01;100.00;101178.41;686242;28;1235;-76
2022/04/14 00:49:24;;;;;;;12.97;9.90;;;;;;;12.00;100.00;101187.13;683478;28;1571;-76
2022/04/14 00:49:45;;;;;;;13.73;10.20;;;;;;;11.99;100.00;101181.03;683437;28;4289;-78
2022/04/14 00:50:06;;;;;;;14.00;10.40;;;;;;;12.00;100.00;101176.66;685370;28;1576;-76
2022/04/14 00:50:26;;;;;;;13.25;10.50;;;;;;;11.97;100.00;101192.38;686681;28;1699;-76
2022/04/14 00:50:47;;;;;;;12.73;9.60;;;;;;;11.98;100.00;101178.41;684351;28;1316;-76
2022/04/14 00:51:07;;;;;;;13.15;9.40;;;;;;;11.99;100.00;101180.13;684323;28;1204;-77
2022/04/14 00:51:28;;;;;;;12.60;9.60;;;;;;;11.99;100.00;101181.03;684101;28;1484;-76
2022/04/14 00:51:48;;;;;;;14.35;9.80;;;;;;;11.99;100.00;101173.16;684480;28;1345;-77
2022/04/14 00:52:09;;;;;;;13.53;9.70;;;;;;;11.98;100.00;101178.41;681551;28;1450;-77
2022/04/14 00:52:29;;;;;;;12.95;9.93;;;;;;;11.98;100.00;101178.41;679371;28;1201;-76
2022/04/14 00:52:49;;;;;;;13.23;10.00;;;;;;;12.01;100.00;101181.88;681181;28;4291;-77
2022/04/14 00:53:11;;;;;;;14.88;10.82;;;;;;;12.00;100.00;101188.00;680924;28;1137;-77
2022/04/14 00:53:31;;;;;;;15.35;10.90;;;;;;;11.99;100.00;101182.75;679618;28;1314;-76
2022/04/14 00:53:51;;;;;;;14.57;10.20;;;;;;;11.98;100.00;101181.91;681555;28;1217;-76
2022/04/14 00:54:12;;;;;;;14.52;10.40;;;;;;;11.97;100.00;101180.16;684752;28;924;-77
2022/04/14 00:54:33;;;;;;;15.60;10.50;;;;;;;11.96;100.00;101182.78;683222;28;1128;-76
2022/04/14 00:54:53;;;;;;;14.95;10.95;;;;;;;11.95;100.00;101181.91;679962;28;1306;-76
2022/04/14 00:55:14;;;;;;;13.55;10.60;;;;;;;11.90;100.00;101174.00;680729;28;1332;-76
2022/04/14 00:55:34;;;;;;;15.43;10.27;;;;;;;11.90;100.00;101170.53;680682;28;4342;-76
2022/04/14 00:55:54;;;;;;;14.70;10.18;;;;;;;11.88;100.00;101178.41;680730;28;3619;-76
2022/04/14 00:56:15;;;;;;;13.97;10.40;;;;;;;11.87;100.00;101181.88;681683;28;1022;-76
2022/04/14 00:56:35;;;;;;;13.50;10.52;;;;;;;11.87;100.00;101175.78;685580;28;2065;-76
2022/04/14 00:57:03;;;;;;;13.27;10.30;;;;;;;11.85;100.00;101180.13;683281;28;1226;-77
2022/04/14 00:57:23;;;;;;;15.45;10.90;;;;;;;11.84;100.00;101175.78;681150;28;1369;-76
2022/04/14 00:57:44;;;;;;;15.93;11.30;;;;;;;11.84;100.00;101181.03;682750;28;1078;-76
2022/04/14 00:58:04;;;;;;;15.00;11.07;;;;;;;11.81;100.00;101176.66;682430;28;1523;-76
2022/04/14 00:58:26;;;;;;;14.10;10.65;;;;;;;11.80;100.00;101177.53;681832;28;1150;-76
2022/04/14 00:58:46;;;;;;;13.63;10.35;;;;;;;11.80;100.00;101184.53;683219;28;4320;-76
2022/04/14 00:59:06;;;;;;;13.63;10.47;;;;;;;11.82;100.00;101175.78;684347;28;1249;-77
2022/04/14 00:59:28;;;;;;;12.80;9.90;;;;;;;11.83;100.00;101171.44;686246;28;1313;-76
2022/04/14 00:59:48;;;;;;;12.38;9.60;;;;;;;11.85;100.00;101175.78;682893;28;1613;-77
2022/04/14 01:00:09;;;;;;;14.25;9.98;;;;;;;11.85;100.00;101178.41;683920;28;1000;-76
2022/04/14 01:00:30;;;;;;;14.35;10.90;;;;;;;11.84;100.00;101176.66;684298;28;1926;-76
2022/04/14 01:00:50;;;;;;;12.80;10.10;;;;;;;11.86;100.00;101182.75;680083;28;1393;-77
2022/04/14 01:01:12;;;;;;;12.75;9.73;;;;;;;11.88;100.00;101175.78;680294;28;1787;-76
2022/04/14 01:01:32;;;;;;;14.20;10.23;;;;;;;11.88;100.00;101173.16;681469;28;4381;-76
2022/04/14 01:01:56;;;;;;;13.93;10.07;;;;;;;11.92;100.00;101168.75;681248;28;1501;-76
2022/04/14 01:02:16;;;;;;;15.88;10.88;;;;;;;11.92;100.00;101176.63;680512;28;1364;-77
2022/04/14 01:02:37;;;;;;;15.53;11.00;;;;;;;11.91;100.00;101173.16;681016;28;1365;-76
2022/04/14 01:02:57;;;;;;;15.77;11.23;;;;;;;11.89;100.00;101177.53;682177;28;1387;-77
2022/04/14 01:03:18;;;;;;;16.25;10.98;;;;;;;11.91;100.00;101180.13;677724;29;1699;-76
2022/04/14 01:03:39;;;;;;;15.30;11.15;;;;;;;11.92;100.00;101174.00;676632;29;1407;-77
2022/04/14 01:04:02;;;;;;;14.60;11.45;;;;;;;11.94;100.00;101174.91;676727;29;1322;-77
2022/04/14 01:04:27;;;;;;;15.57;11.88;;;;;;;11.95;100.00;101181.91;679297;28;1442;-77
2022/04/14 01:04:49;;;;;;;15.45;11.73;;;;;;;12.00;100.00;101176.66;678281;28;4306;-77
2022/04/14 01:05:10;;;;;;;16.88;11.70;;;;;;;12.01;100.00;101176.66;682674;28;1713;-77
2022/04/14 01:05:31;;;;;;;15.93;11.68;;;;;;;12.01;100.00;101174.03;682262;28;1512;-76
2022/04/14 01:05:53;;;;;;;14.60;11.27;;;;;;;12.01;100.00;101174.03;681429;28;1571;-77
2022/04/14 01:06:19;;;;;;;15.88;11.80;;;;;;;12.01;100.00;101174.03;679934;28;1169;-77
2022/04/14 01:06:39;;;;;;;15.32;11.70;;;;;;;12.05;100.00;101180.13;680566;28;1427;-76
2022/04/14 01:07:00;;;;;;;15.38;11.35;;;;;;;12.07;100.00;101174.03;677403;28;1541;-76
2022/04/14 01:07:20;;;;;;;15.77;11.30;;;;;;;12.07;100.00;101174.03;678915;29;1579;-76
2022/04/14 01:07:44;;;;;;;15.30;11.55;;;;;;;12.07;100.00;101178.38;680319;28;4284;-76
2022/04/14 01:08:06;;;;;;;15.32;11.30;;;;;;;12.07;100.00;101179.28;685117;28;1536;-76
2022/04/14 01:08:27;;;;;;;14.70;11.27;;;;;;;12.08;100.00;101174.88;684358;28;1578;-76
2022/04/14 01:09:29;;;;;;;16.88;12.38;;;;;;;12.08;100.00;101172.25;686931;28;1548;-76
2022/04/14 01:09:50;;;;;;;16.90;12.07;;;;;;;12.08;100.00;101174.88;689088;28;1482;-77
2022/04/14 01:10:10;;;;;;;15.50;11.70;;;;;;;12.07;100.00;101174.03;689422;28;1432;-76
2022/04/14 01:10:31;;;;;;;16.43;12.23;;;;;;;12.07;100.00;101174.03;690167;28;1475;-76
2022/04/14 01:10:53;;;;;;;17.05;11.98;;;;;;;12.06;100.00;101171.41;690036;28;4433;-76
2022/04/14 01:11:14;;;;;;;15.18;11.48;;;;;;;12.06;100.00;101176.66;689044;28;1579;-77
2022/04/14 01:11:36;;;;;;;16.75;11.73;;;;;;;12.04;100.00;101173.16;687599;28;1209;-76
2022/04/14 01:11:56;;;;;;;14.93;11.60;;;;;;;12.04;100.00;101174.00;685606;28;1455;-77
2022/04/14 01:12:17;;;;;;;17.40;12.40;;;;;;;12.04;100.00;101174.00;683677;28;1415;-77
2022/04/14 01:12:38;;;;;;;15.73;12.13;;;;;;;12.05;100.00;101185.38;681805;28;1042;-76
2022/04/14 01:12:59;;;;;;;15.40;12.07;;;;;;;12.06;100.00;101174.03;682844;28;1151;-76
2022/04/14 01:13:20;;;;;;;15.35;11.50;;;;;;;12.05;100.00;101170.53;682216;28;1496;-76
2022/04/14 01:13:41;;;;;;;14.57;11.32;;;;;;;12.06;100.00;101177.50;680966;28;4312;-76
2022/04/14 01:14:01;;;;;;;15.57;11.27;;;;;;;12.08;100.00;101175.75;682671;28;1436;-77
2022/04/14 01:14:29;;;;;;;16.35;11.32;;;;;;;12.10;100.00;101173.13;683087;28;1559;-76
2022/04/14 01:14:49;;;;;;;15.60;11.98;;;;;;;12.11;100.00;101174.00;680710;28;915;-76
2022/04/14 01:15:12;;;;;;;17.10;12.35;;;;;;;12.11;100.00;101172.25;681932;28;1066;-77
2022/04/14 01:15:32;;;;;;;15.48;12.10;;;;;;;12.12;100.00;101170.53;681064;28;1264;-77
2022/04/14 01:15:58;;;;;;;16.02;11.77;;;;;;;12.13;100.00;101172.25;683283;28;1483;-76
2022/04/14 01:16:18;;;;;;;14.65;10.80;;;;;;;12.14;100.00;101177.47;683242;28;1058;-76
2022/04/14 01:16:38;;;;;;;14.67;11.53;;;;;;;12.14;100.00;101174.84;683848;28;4271;-76
2022/04/14 01:17:01;;;;;;;16.93;11.67;;;;;;;12.16;100.00;101170.50;683365;28;1883;-76
2022/04/14 01:17:25;;;;;;;16.08;11.38;;;;;;;12.15;100.00;101173.13;686928;28;1412;-77
2022/04/14 01:17:45;;;;;;;14.68;11.18;;;;;;;12.14;100.00;101168.75;686862;28;1341;-78
2022/04/14 01:18:06;;;;;;;15.20;10.90;;;;;;;12.13;100.00;101174.84;683615;28;1296;-76
2022/04/14 01:18:27;;;;;;;14.35;10.70;;;;;;;12.13;100.00;101177.47;681213;28;1189;-76
2022/04/14 01:18:47;;;;;;;13.85;10.88;;;;;;;12.12;100.00;101173.16;682325;28;1017;-76
2022/04/14 01:19:08;;;;;;;14.67;11.67;;;;;;;12.13;100.00;101172.25;680545;28;1126;-76
2022/04/14 01:19:29;;;;;;;15.40;11.07;;;;;;;12.12;100.00;101167.91;681027;28;931;-76
2022/04/14 01:19:49;;;;;;;16.05;11.45;;;;;;;12.12;100.00;101170.53;682090;28;4277;-77
2022/04/14 01:20:11;;;;;;;15.43;11.33;;;;;;;12.11;100.00;101174.88;688546;28;1484;-77
2022/04/14 01:20:31;;;;;;;16.45;12.07;;;;;;;12.08;100.00;101170.50;688177;28;1910;-76
2022/04/14 01:20:52;;;;;;;16.27;12.18;;;;;;;12.07;100.00;101174.03;687430;28;1186;-76
2022/04/14 01:21:12;;;;;;;16.60;12.10;;;;;;;12.04;100.00;101179.25;688255;28;1528;-77
2022/04/14 01:21:33;;;;;;;16.85;11.57;;;;;;;12.04;100.00;101173.16;689916;28;1361;-76
2022/04/14 01:22:23;;;;;;;15.02;11.35;;;;;;;12.02;100.00;101175.78;690472;28;1298;-77
2022/04/14 01:23:04;;;;;;;17.10;12.05;;;;;;;11.98;100.00;101173.19;683794;28;4291;-76
2022/04/14 01:23:54;;;;;;;17.27;12.10;;;;;;;11.93;100.00;101178.38;689400;28;1229;-76
2022/04/14 01:24:14;;;;;;;14.80;11.52;;;;;;;11.90;100.00;101181.88;673135;29;1566;-78
2022/04/14 01:24:35;;;;;;;17.43;12.00;;;;;;;11.89;100.00;101179.25;677169;28;1327;-75
2022/04/14 01:24:57;;;;;;;17.60;12.20;;;;;;;11.87;100.00;101181.88;684683;28;1633;-77
2022/04/14 01:25:18;;;;;;;17.08;12.13;;;;;;;11.86;100.00;101180.13;680303;28;1270;-75
2022/04/14 01:25:38;;;;;;;16.30;11.93;;;;;;;11.86;100.00;101181.88;680202;28;4307;-76
2022/04/14 01:25:59;;;;;;;16.48;12.07;;;;;;;11.85;100.00;101177.53;682843;28;1336;-76
2022/04/14 01:26:20;;;;;;;16.47;12.10;;;;;;;11.83;100.00;101185.38;684746;28;1364;-76
2022/04/14 01:26:40;;;;;;;15.25;11.60;;;;;;;11.82;100.00;101183.63;684555;28;1190;-76
2022/04/14 01:27:01;;;;;;;16.92;12.35;;;;;;;11.80;100.00;101188.00;684019;28;1418;-76
2022/04/14 01:27:22;;;;;;;17.20;12.03;;;;;;;11.79;100.00;101183.63;685399;28;1010;-76
2022/04/14 01:27:42;;;;;;;17.92;12.45;;;;;;;11.78;100.00;101181.88;684307;28;1263;-76
2022/04/14 01:28:03;;;;;;;15.50;12.13;;;;;;;11.77;100.00;101185.41;683863;28;1229;-76
2022/04/14 01:28:24;;;;;;;15.25;11.40;;;;;;;11.76;100.00;101183.66;683767;28;1635;-76
2022/04/14 01:28:44;;;;;;;14.93;11.73;;;;;;;11.75;100.00;101181.91;684458;28;4279;-76
2022/04/14 01:29:04;;;;;;;16.55;11.90;;;;;;;11.75;100.00;101181.91;685756;28;1105;-76
2022/04/14 01:29:26;;;;;;;15.77;11.63;;;;;;;11.76;100.00;101184.50;686023;28;1854;-76
2022/04/14 01:29:47;;;;;;;15.85;11.90;;;;;;;11.75;100.00;101180.19;690355;28;1593;-76
2022/04/14 01:30:08;;;;;;;14.57;11.20;;;;;;;11.77;100.00;101180.16;687448;28;1518;-76
2022/04/14 01:30:29;;;;;;;14.15;11.02;;;;;;;11.79;100.00;101177.53;688090;28;1005;-76
2022/04/14 01:30:49;;;;;;;15.80;11.57;;;;;;;11.78;100.00;101189.75;686385;28;1901;-76
2022/04/14 01:31:09;;;;;;;15.77;11.70;;;;;;;11.78;100.00;101184.50;681667;28;1613;-76
2022/04/14 01:31:30;;;;;;;15.20;11.27;;;;;;;11.76;100.00;101200.22;684403;28;1149;-76
2022/04/14 01:31:51;;;;;;;15.00;11.25;;;;;;;11.76;100.00;101188.91;685544;28;4386;-76
2022/04/14 01:32:11;;;;;;;15.88;11.75;;;;;;;11.75;100.00;101187.13;683993;28;1335;-76
2022/04/14 01:32:32;;;;;;;16.23;11.98;;;;;;;11.74;100.00;101190.63;686346;28;1503;-76
2022/04/14 01:32:52;;;;;;;16.60;12.30;;;;;;;11.73;100.00;101188.91;685986;28;1386;-76
2022/04/14 01:33:13;;;;;;;17.47;12.23;;;;;;;11.73;100.00;101178.44;687964;28;986;-76
2022/04/14 01:33:33;;;;;;;17.53;11.70;;;;;;;11.75;100.00;101193.28;685753;28;1732;-76
2022/04/14 01:33:53;;;;;;;16.30;11.50;;;;;;;11.76;100.00;101188.91;684231;28;1470;-76
2022/04/14 01:34:14;;;;;;;15.55;11.80;;;;;;;11.76;100.00;101183.66;683308;28;1615;-76
2022/04/14 01:34:34;;;;;;;17.73;12.47;;;;;;;11.74;100.00;101186.28;683634;28;4583;-75
2022/04/14 01:34:54;;;;;;;17.70;12.38;;;;;;;11.74;100.00;101195.88;684418;28;1213;-76
2022/04/14 01:35:17;;;;;;;16.67;12.17;;;;;;;11.73;100.00;101189.75;684214;28;1485;-76
2022/04/14 01:35:38;;;;;;;16.98;12.25;;;;;;;11.72;100.00;101193.25;682840;28;1510;-76
2022/04/14 01:35:59;;;;;;;16.63;12.57;;;;;;;11.72;100.00;101184.53;680693;28;1458;-76
2022/04/14 01:36:19;;;;;;;15.60;11.93;;;;;;;11.72;100.00;101192.38;683292;28;1440;-76
2022/04/14 01:36:40;;;;;;;15.93;11.73;;;;;;;11.71;100.00;101193.25;686404;28;1528;-76
2022/04/14 01:37:00;;;;;;;16.38;12.25;;;;;;;11.71;100.00;101190.63;684126;28;987;-75
2022/04/14 01:37:21;;;;;;;16.37;12.47;;;;;;;11.70;100.00;101188.88;681718;28;1193;-76
2022/04/14 01:37:41;;;;;;;15.80;12.45;;;;;;;11.70;100.00;101188.88;681373;28;4335;-75
2022/04/14 01:38:02;;;;;;;15.93;12.60;;;;;;;11.70;100.00;101188.88;683307;28;1711;-76
2022/04/14 01:38:22;;;;;;;16.70;12.50;;;;;;;11.71;100.00;101186.28;679895;28;853;-76